createdAt,value
2023-04-26T00:02:07.534Z,99916.06
2023-04-26T00:04:36.646Z,99918.09
2023-04-26T00:07:04.845Z,99921.72
2023-04-26T00:09:32.715Z,99922.19
2023-04-26T00:12:01.121Z,99924.47
2023-04-26T00:14:28.964Z,99922.00
2023-04-26T00:16:56.775Z,99924.16
2023-04-26T00:19:24.850Z,99915.50
2023-04-26T00:21:53.901Z,99924.19
2023-04-26T00:24:22.182Z,99932.88
2023-04-26T00:26:49.834Z,99919.34
2023-04-26T00:29:17.476Z,99924.94
2023-04-26T00:31:45.246Z,99927.78
2023-04-26T00:34:12.943Z,99922.78
2023-04-26T00:36:40.948Z,99916.94
2023-04-26T00:39:10.455Z,99923.03
2023-04-26T00:41:38.291Z,99917.66
2023-04-26T00:44:06.271Z,99913.38
2023-04-26T00:46:33.876Z,99913.97
2023-04-26T00:49:01.637Z,99916.72
2023-04-26T00:51:29.440Z,99925.88
2023-04-26T00:53:58.120Z,99915.75
2023-04-26T00:56:27.236Z,99919.22
2023-04-26T00:58:55.286Z,99913.97
2023-04-26T01:01:23.106Z,99925.88
2023-04-26T01:03:50.954Z,99915.28
2023-04-26T01:06:18.898Z,99925.38
2023-04-26T01:08:46.659Z,99925.66
2023-04-26T01:11:15.721Z,99927.78
2023-04-26T01:13:45.141Z,99922.31
2023-04-26T01:16:14.911Z,99924.09
2023-04-26T01:18:43.046Z,99916.72
2023-04-26T01:21:11.378Z,99921.47
2023-04-26T01:23:40.372Z,99920.84
2023-04-26T01:26:07.965Z,99926.44
2023-04-26T01:28:35.874Z,99919.69
2023-04-26T01:31:03.556Z,99915.28
2023-04-26T01:33:31.388Z,99919.44
2023-04-26T01:35:59.188Z,99920.84
2023-04-26T01:38:26.815Z,99919.44
2023-04-26T01:40:55.815Z,99918.47
2023-04-26T01:43:23.477Z,99918.69
2023-04-26T01:45:51.239Z,99923.25
2023-04-26T01:48:18.855Z,99915.13
2023-04-26T01:50:46.715Z,99922.00
2023-04-26T01:53:14.463Z,99913.69
2023-04-26T01:55:42.119Z,99920.06
2023-04-26T01:58:11.143Z,99919.41
2023-04-26T02:00:39.108Z,99917.72
2023-04-26T02:03:06.962Z,99925.22
2023-04-26T02:05:35.301Z,99925.56
2023-04-26T02:08:03.295Z,99927.44
2023-04-26T02:10:31.208Z,99921.00
2023-04-26T02:12:59.082Z,99918.72
2023-04-26T02:15:28.216Z,99916.84
2023-04-26T02:17:55.940Z,99923.34
2023-04-26T02:20:23.836Z,99919.41
2023-04-26T02:22:51.524Z,99922.97
2023-04-26T02:25:19.274Z,99915.06
2023-04-26T02:27:46.865Z,99908.53
2023-04-26T02:30:15.016Z,99916.25
2023-04-26T02:32:44.004Z,99909.47
2023-04-26T02:35:11.770Z,99913.13
2023-04-26T02:37:39.410Z,99910.66
2023-04-26T02:40:10.823Z,99909.03
2023-04-26T02:42:38.604Z,99909.97
2023-04-26T02:45:08.018Z,99921.13
2023-04-26T02:47:36.809Z,99917.84
2023-04-26T02:50:07.582Z,99913.06
2023-04-26T02:52:35.805Z,99918.53
2023-04-26T02:55:04.413Z,99920.84
2023-04-26T02:57:32.230Z,99922.56
2023-04-26T03:00:00.911Z,99921.63
2023-04-26T03:02:28.883Z,99925.13
2023-04-26T03:04:56.996Z,99929.50
2023-04-26T03:07:26.028Z,99916.13
2023-04-26T03:09:53.648Z,99924.94
2023-04-26T03:12:21.361Z,99920.25
2023-04-26T03:14:49.373Z,99914.59
2023-04-26T03:17:17.160Z,99918.47
2023-04-26T03:19:44.844Z,99924.03
2023-04-26T03:22:16.001Z,99920.56
2023-04-26T03:24:46.852Z,99918.16
2023-04-26T03:27:14.645Z,99917.13
2023-04-26T03:29:43.982Z,99923.69
2023-04-26T03:32:12.004Z,99914.28
2023-04-26T03:34:39.716Z,99916.84
2023-04-26T03:37:07.687Z,99922.34
2023-04-26T03:39:35.348Z,99924.19
2023-04-26T03:42:04.465Z,99928.28
2023-04-26T03:44:32.400Z,99923.59
2023-04-26T03:47:00.076Z,99928.84
2023-04-26T03:49:27.700Z,99920.19
2023-04-26T03:51:55.359Z,99918.31
2023-04-26T03:54:22.979Z,99917.59
2023-04-26T03:56:50.688Z,99911.03
2023-04-26T03:59:19.674Z,99909.78
2023-04-26T04:01:47.370Z,99904.97
2023-04-26T04:04:15.170Z,99904.34
2023-04-26T04:06:43.111Z,99901.44
2023-04-26T04:09:10.811Z,99903.75
2023-04-26T04:11:38.431Z,99907.88
2023-04-26T04:14:07.292Z,99918.75
2023-04-26T04:16:36.448Z,99915.44
2023-04-26T04:19:04.136Z,99914.38
2023-04-26T04:21:32.073Z,99920.00
2023-04-26T04:23:59.820Z,99919.31
2023-04-26T04:26:27.984Z,99926.72
2023-04-26T04:28:56.416Z,99928.47
2023-04-26T04:31:24.901Z,99929.19
2023-04-26T04:33:53.998Z,99930.66
2023-04-26T04:36:21.631Z,99934.81
2023-04-26T04:38:49.324Z,99940.66
2023-04-26T04:41:17.033Z,99937.22
2023-04-26T04:43:44.764Z,99943.47
2023-04-26T04:46:13.226Z,99942.63
2023-04-26T04:48:41.544Z,99941.50
2023-04-26T04:51:10.532Z,99952.88
2023-04-26T04:53:38.334Z,99948.91
2023-04-26T04:56:06.517Z,99948.38
2023-04-26T04:58:34.330Z,99947.28
2023-04-26T05:01:02.963Z,99947.28
2023-04-26T05:03:30.797Z,99954.69
2023-04-26T05:05:58.656Z,99954.34
2023-04-26T05:08:27.832Z,99963.31
2023-04-26T05:10:56.772Z,99960.16
2023-04-26T05:13:24.412Z,99957.53
2023-04-26T05:15:52.086Z,99954.69
2023-04-26T05:18:19.724Z,99962.72
2023-04-26T05:20:47.494Z,99963.97
2023-04-26T05:23:15.228Z,99960.56
2023-04-26T05:25:44.161Z,99964.25
2023-04-26T05:28:12.770Z,99973.09
2023-04-26T05:30:40.682Z,99972.63
2023-04-26T05:33:08.501Z,99974.97
2023-04-26T05:35:36.345Z,99970.53
2023-04-26T05:38:04.821Z,99974.03
2023-04-26T05:40:32.693Z,99972.00
2023-04-26T05:43:02.011Z,99975.81
2023-04-26T05:45:29.686Z,99975.34
2023-04-26T05:47:57.393Z,99979.72
2023-04-26T05:50:25.303Z,99975.69
2023-04-26T05:52:52.901Z,99983.78
2023-04-26T05:55:21.514Z,99989.34
2023-04-26T05:57:49.270Z,99986.94
2023-04-26T06:00:20.877Z,99990.00
2023-04-26T06:02:48.774Z,99998.97
2023-04-26T06:05:16.694Z,99994.34
2023-04-26T06:07:46.103Z,99996.44
2023-04-26T06:10:14.088Z,99998.97
2023-04-26T06:12:42.193Z,99996.56
2023-04-26T06:15:11.123Z,99996.41
2023-04-26T06:17:40.573Z,99994.75
2023-04-26T06:20:09.974Z,100002.78
2023-04-26T06:22:37.959Z,99997.16
2023-04-26T06:25:06.824Z,99991.91
2023-04-26T06:27:34.746Z,99986.59
2023-04-26T06:30:04.734Z,99984.09
2023-04-26T06:32:32.428Z,99981.34
2023-04-26T06:35:01.590Z,99984.59
2023-04-26T06:37:29.449Z,99986.03
2023-04-26T06:39:57.086Z,99979.72
2023-04-26T06:42:24.749Z,99983.81
2023-04-26T06:44:52.438Z,99972.75
2023-04-26T06:47:20.219Z,99977.41
2023-04-26T06:49:47.894Z,99973.53
2023-04-26T06:52:17.084Z,99972.84
2023-04-26T06:54:55.938Z,99976.16
2023-04-26T06:57:24.573Z,99981.78
2023-04-26T06:59:52.371Z,99973.63
2023-04-26T07:02:20.177Z,99975.25
2023-04-26T07:04:48.087Z,99966.59
2023-04-26T07:07:17.185Z,99965.78
2023-04-26T07:09:45.120Z,99967.72
2023-04-26T07:12:12.795Z,99976.38
2023-04-26T07:14:41.478Z,99971.16
2023-04-26T07:17:09.453Z,99962.94
2023-04-26T07:19:37.582Z,99975.78
2023-04-26T07:22:05.616Z,99976.16
2023-04-26T07:24:34.857Z,99977.03
2023-04-26T07:27:03.450Z,99971.34
2023-04-26T07:29:31.275Z,99964.53
2023-04-26T07:31:59.206Z,99968.72
2023-04-26T07:34:26.939Z,99973.31
2023-04-26T07:36:54.657Z,99971.53
2023-04-26T07:39:22.289Z,99962.88
2023-04-26T07:41:51.580Z,99971.09
2023-04-26T07:44:19.241Z,99969.63
2023-04-26T07:46:47.083Z,99963.75
2023-04-26T07:49:14.860Z,99966.63
2023-04-26T07:51:45.620Z,99968.56
2023-04-26T07:54:13.308Z,99969.28
2023-04-26T07:56:41.036Z,99970.06
2023-04-26T07:59:10.173Z,99965.53
2023-04-26T08:01:37.793Z,99964.59
2023-04-26T08:04:06.566Z,99968.88
2023-04-26T08:06:34.418Z,99964.16
2023-04-26T08:09:02.181Z,99969.34
2023-04-26T08:11:29.945Z,99978.81
2023-04-26T08:13:57.734Z,99971.03
2023-04-26T08:16:26.990Z,99962.53
2023-04-26T08:18:54.778Z,99975.56
2023-04-26T08:21:22.443Z,99961.16
2023-04-26T08:23:50.159Z,99963.31
2023-04-26T08:26:17.812Z,99965.84
2023-04-26T08:28:45.493Z,99964.47
2023-04-26T08:31:13.554Z,99963.63
2023-04-26T08:33:43.728Z,99960.13
2023-04-26T08:36:11.494Z,99956.94
2023-04-26T08:38:39.111Z,99955.00
2023-04-26T08:41:08.117Z,99956.53
2023-04-26T08:43:38.253Z,99952.94
2023-04-26T08:46:11.992Z,99949.75
2023-04-26T08:48:39.929Z,99944.97
2023-04-26T08:51:14.368Z,99948.84
2023-04-26T08:53:42.897Z,99953.91
2023-04-26T08:56:13.404Z,99943.75
2023-04-26T08:58:41.319Z,99945.22
2023-04-26T09:01:10.343Z,99936.91
2023-04-26T09:03:38.164Z,99945.66
2023-04-26T09:06:09.124Z,99940.13
2023-04-26T09:08:39.652Z,99938.88
2023-04-26T09:11:07.562Z,99927.78
2023-04-26T09:13:35.254Z,99940.25
2023-04-26T09:16:04.923Z,99936.94
2023-04-26T09:18:33.939Z,99940.72
2023-04-26T09:21:07.023Z,99942.50
2023-04-26T09:23:36.857Z,99944.91
2023-04-26T09:26:17.416Z,99954.09
2023-04-26T09:28:46.614Z,99954.09
2023-04-26T09:31:24.591Z,99951.91
2023-04-26T09:34:01.724Z,99949.28
2023-04-26T09:36:29.307Z,99948.38
2023-04-26T09:38:58.464Z,99944.25
2023-04-26T09:41:43.247Z,99940.84
2023-04-26T09:44:22.295Z,99939.06
2023-04-26T09:47:04.741Z,99939.47
2023-04-26T09:49:33.983Z,99940.50
2023-04-26T09:52:03.290Z,99926.19
2023-04-26T09:54:43.534Z,99923.81
2023-04-26T09:57:11.803Z,99924.06
2023-04-26T09:59:47.142Z,99926.50
2023-04-26T10:02:21.925Z,99932.16
2023-04-26T10:04:51.262Z,99928.53
2023-04-26T10:07:21.090Z,99919.22
2023-04-26T10:09:51.253Z,99924.34
2023-04-26T10:12:20.853Z,99928.91
2023-04-26T10:14:49.757Z,99928.47
2023-04-26T10:17:19.779Z,99938.50
2023-04-26T10:19:51.309Z,99931.97
2023-04-26T10:22:23.101Z,99921.81
2023-04-26T10:24:54.334Z,99926.75
2023-04-26T10:27:50.167Z,99927.47
2023-04-26T10:30:19.033Z,99925.59
2023-04-26T10:33:17.400Z,99927.97
2023-04-26T10:36:11.361Z,99915.25
2023-04-26T10:38:40.972Z,99904.50
2023-04-26T10:41:32.895Z,99890.25
2023-04-26T10:44:21.890Z,99894.53
2023-04-26T10:46:52.688Z,99888.19
2023-04-26T10:49:26.464Z,99891.94
2023-04-26T10:52:14.767Z,99884.41
2023-04-26T10:54:56.212Z,99881.56
2023-04-26T10:57:46.630Z,99881.69
2023-04-26T11:00:28.556Z,99873.44
2023-04-26T11:03:12.650Z,99878.53
2023-04-26T11:05:52.400Z,99875.88
2023-04-26T11:08:21.815Z,99863.31
2023-04-26T11:11:00.573Z,99864.50
2023-04-26T11:13:31.914Z,99855.09
2023-04-26T11:16:03.343Z,99856.50
2023-04-26T11:18:31.853Z,99864.44
2023-04-26T11:21:00.197Z,99859.50
2023-04-26T11:23:29.884Z,99855.31
2023-04-26T11:25:59.046Z,99853.97
2023-04-26T11:28:26.959Z,99851.16
2023-04-26T11:30:56.285Z,99845.56
2023-04-26T11:33:24.566Z,99843.19
2023-04-26T11:35:53.035Z,99844.19
2023-04-26T11:38:23.397Z,99842.78
2023-04-26T11:40:56.021Z,99835.78
2023-04-26T11:43:23.831Z,99836.28
2023-04-26T11:45:51.654Z,99837.84
2023-04-26T11:48:20.819Z,99827.53
2023-04-26T11:50:48.671Z,99833.34
2023-04-26T11:53:16.496Z,99843.47
2023-04-26T11:55:44.222Z,99827.78
2023-04-26T11:58:14.196Z,99827.59
2023-04-26T12:00:58.075Z,99831.44
2023-04-26T12:03:32.311Z,99821.03
2023-04-26T12:06:01.292Z,99823.88
2023-04-26T12:08:29.174Z,99828.38
2023-04-26T12:11:02.050Z,99831.34
2023-04-26T12:13:30.584Z,99827.91
2023-04-26T12:15:58.255Z,99822.22
2023-04-26T12:18:33.479Z,99830.50
2023-04-26T12:21:02.111Z,99828.53
2023-04-26T12:23:39.342Z,99816.00
2023-04-26T12:26:07.569Z,99824.16
2023-04-26T12:28:35.262Z,99818.38
2023-04-26T12:31:04.524Z,99826.31
2023-04-26T12:33:33.597Z,99822.09
2023-04-26T12:36:07.648Z,99810.91
2023-04-26T12:38:35.448Z,99810.22
2023-04-26T12:41:03.438Z,99820.59
2023-04-26T12:43:31.050Z,99814.28
2023-04-26T12:45:58.784Z,99816.75
2023-04-26T12:48:26.527Z,99816.94
2023-04-26T12:50:55.836Z,99815.75
2023-04-26T12:53:23.517Z,99812.91
2023-04-26T12:55:51.207Z,99806.75
2023-04-26T12:58:18.933Z,99807.75
2023-04-26T13:00:46.597Z,99818.50
2023-04-26T13:03:15.352Z,99804.97
2023-04-26T13:05:43.195Z,99815.66
2023-04-26T13:08:12.503Z,99806.75
2023-04-26T13:10:40.464Z,99805.97
2023-04-26T13:13:08.096Z,99807.19
2023-04-26T13:15:35.904Z,99802.31
2023-04-26T13:18:03.821Z,99814.00
2023-04-26T13:20:31.650Z,99807.63
2023-04-26T13:22:59.447Z,99807.41
2023-04-26T13:25:28.511Z,99796.34
2023-04-26T13:27:56.127Z,99807.97
2023-04-26T13:30:23.838Z,99806.81
2023-04-26T13:32:51.652Z,99796.72
2023-04-26T13:35:19.696Z,99807.03
2023-04-26T13:37:47.448Z,99802.47
2023-04-26T13:40:15.180Z,99807.69
2023-04-26T13:42:44.238Z,99808.75
2023-04-26T13:45:17.060Z,99804.97
2023-04-26T13:47:46.557Z,99810.13
2023-04-26T13:50:14.268Z,99807.38
2023-04-26T13:52:41.982Z,99807.78
2023-04-26T13:55:10.227Z,99799.00
2023-04-26T13:57:37.920Z,99793.44
2023-04-26T14:00:08.978Z,99792.59
2023-04-26T14:02:36.913Z,99797.13
2023-04-26T14:05:05.812Z,99792.22
2023-04-26T14:07:34.003Z,99792.25
2023-04-26T14:10:02.172Z,99791.00
2023-04-26T14:12:30.616Z,99788.72
2023-04-26T14:14:58.279Z,99782.34
2023-04-26T14:17:29.069Z,99787.66
2023-04-26T14:19:57.228Z,99778.22
2023-04-26T14:22:25.820Z,99777.81
2023-04-26T14:24:53.594Z,99769.38
2023-04-26T14:27:21.331Z,99773.47
2023-04-26T14:29:49.063Z,99777.44
2023-04-26T14:32:16.749Z,99776.03
2023-04-26T14:34:46.023Z,99777.72
2023-04-26T14:37:13.666Z,99781.50
2023-04-26T14:39:41.993Z,99778.84
2023-04-26T14:42:09.828Z,99771.75
2023-04-26T14:44:37.527Z,99776.28
2023-04-26T14:47:05.332Z,99775.94
2023-04-26T14:49:33.053Z,99781.38
2023-04-26T14:52:02.138Z,99776.56
2023-04-26T14:54:29.895Z,99768.75
2023-04-26T14:56:58.178Z,99761.75
2023-04-26T14:59:25.946Z,99751.41
2023-04-26T15:01:53.830Z,99751.97
2023-04-26T15:04:21.757Z,99744.84
2023-04-26T15:06:49.591Z,99741.63
2023-04-26T15:09:18.783Z,99750.56
2023-04-26T15:11:46.446Z,99746.28
2023-04-26T15:14:14.184Z,99746.50
2023-04-26T15:16:41.963Z,99746.88
2023-04-26T15:19:09.760Z,99743.50
2023-04-26T15:21:37.513Z,99736.25
2023-04-26T15:24:07.569Z,99734.97
2023-04-26T15:26:36.627Z,99728.53
2023-04-26T15:29:04.532Z,99730.22
2023-04-26T15:31:32.281Z,99730.56
2023-04-26T15:33:59.942Z,99734.91
2023-04-26T15:36:28.129Z,99734.63
2023-04-26T15:38:56.115Z,99729.19
2023-04-26T15:41:24.077Z,99729.16
2023-04-26T15:43:55.879Z,99729.25
2023-04-26T15:46:23.570Z,99738.22
2023-04-26T15:48:51.516Z,99735.69
2023-04-26T15:51:19.351Z,99729.00
2023-04-26T15:53:47.114Z,99727.91
2023-04-26T15:56:15.719Z,99733.59
2023-04-26T15:58:45.062Z,99733.88
2023-04-26T16:01:14.679Z,99732.22
2023-04-26T16:03:46.444Z,99730.56
2023-04-26T16:06:15.457Z,99722.25
2023-04-26T16:08:43.261Z,99733.41
2023-04-26T16:11:11.162Z,99728.31
2023-04-26T16:13:38.941Z,99729.91
2023-04-26T16:16:08.292Z,99724.19
2023-04-26T16:18:39.620Z,99726.44
2023-04-26T16:21:09.544Z,99723.38
2023-04-26T16:23:37.857Z,99727.91
2023-04-26T16:26:06.034Z,99728.31
2023-04-26T16:28:33.818Z,99729.34
2023-04-26T16:31:01.639Z,99724.00
2023-04-26T16:33:29.675Z,99728.84
2023-04-26T16:35:58.734Z,99729.34
2023-04-26T16:38:26.818Z,99722.75
2023-04-26T16:40:57.474Z,99724.34
2023-04-26T16:43:27.042Z,99733.88
2023-04-26T16:45:59.220Z,99728.09
2023-04-26T16:48:27.396Z,99735.03
2023-04-26T16:50:55.412Z,99737.16
2023-04-26T16:53:24.450Z,99726.53
2023-04-26T16:55:52.172Z,99723.56
2023-04-26T16:58:20.066Z,99727.06
2023-04-26T17:00:48.220Z,99725.00
2023-04-26T17:03:16.415Z,99728.44
2023-04-26T17:05:46.834Z,99729.66
2023-04-26T17:08:15.044Z,99728.28
2023-04-26T17:10:45.194Z,99721.97
2023-04-26T17:13:13.767Z,99724.41
2023-04-26T17:15:41.993Z,99718.19
2023-04-26T17:18:10.058Z,99721.63
2023-04-26T17:20:37.862Z,99733.88
2023-04-26T17:23:05.933Z,99731.63
2023-04-26T17:25:33.656Z,99726.94
2023-04-26T17:28:03.456Z,99735.84
2023-04-26T17:30:31.996Z,99730.03
2023-04-26T17:33:00.027Z,99734.13
2023-04-26T17:35:27.939Z,99734.91
2023-04-26T17:37:55.620Z,99738.59
2023-04-26T17:40:23.280Z,99738.16
2023-04-26T17:42:51.268Z,99735.06
2023-04-26T17:45:20.452Z,99736.91
2023-04-26T17:47:48.358Z,99745.53
2023-04-26T17:50:17.729Z,99744.66
2023-04-26T17:52:46.680Z,99752.34
2023-04-26T17:55:14.436Z,99759.34
2023-04-26T17:57:42.167Z,99759.72
2023-04-26T18:00:11.691Z,99756.84
2023-04-26T18:02:42.190Z,99763.00
2023-04-26T18:05:10.828Z,99760.34
2023-04-26T18:07:38.789Z,99764.47
2023-04-26T18:10:07.712Z,99765.00
2023-04-26T18:12:36.289Z,99758.31
2023-04-26T18:15:04.375Z,99756.41
2023-04-26T18:17:32.247Z,99762.38
2023-04-26T18:20:01.741Z,99764.84
2023-04-26T18:22:29.814Z,99764.53
2023-04-26T18:24:57.626Z,99764.34
2023-04-26T18:27:25.661Z,99764.88
2023-04-26T18:29:53.425Z,99767.63
2023-04-26T18:32:21.287Z,99770.53
2023-04-26T18:34:49.559Z,99772.44
2023-04-26T18:37:18.764Z,99776.72
2023-04-26T18:39:46.552Z,99778.88
2023-04-26T18:42:14.226Z,99783.56
2023-04-26T18:44:42.057Z,99784.09
2023-04-26T18:47:09.847Z,99788.81
2023-04-26T18:49:37.610Z,99787.81
2023-04-26T18:52:08.743Z,99793.00
2023-04-26T18:54:39.091Z,99793.50
2023-04-26T18:57:06.983Z,99805.31
2023-04-26T18:59:34.831Z,99802.50
2023-04-26T19:02:04.206Z,99799.19
2023-04-26T19:04:32.433Z,99805.22
2023-04-26T19:07:01.142Z,99807.66
2023-04-26T19:09:28.921Z,99816.34
2023-04-26T19:11:58.199Z,99819.53
2023-04-26T19:14:26.031Z,99824.56
2023-04-26T19:16:53.749Z,99826.69
2023-04-26T19:19:21.915Z,99830.66
2023-04-26T19:21:49.679Z,99830.03
2023-04-26T19:24:19.016Z,99835.19
2023-04-26T19:26:46.861Z,99839.34
2023-04-26T19:29:16.024Z,99836.34
2023-04-26T19:31:43.865Z,99848.16
2023-04-26T19:34:12.810Z,99854.50
2023-04-26T19:36:40.850Z,99849.56
2023-04-26T19:39:08.711Z,99852.06
2023-04-26T19:41:36.565Z,99856.56
2023-04-26T19:44:04.419Z,99849.72
2023-04-26T19:46:33.849Z,99849.53
2023-04-26T19:49:01.686Z,99840.75
2023-04-26T19:51:29.600Z,99842.88
2023-04-26T19:53:57.285Z,99845.75
2023-04-26T19:56:25.220Z,99845.28
2023-04-26T19:58:52.984Z,99835.03
2023-04-26T20:01:20.906Z,99840.47
2023-04-26T20:03:50.122Z,99844.75
2023-04-26T20:06:17.997Z,99845.56
2023-04-26T20:08:45.692Z,99848.00
2023-04-26T20:11:16.793Z,99847.41
2023-04-26T20:13:45.391Z,99850.66
2023-04-26T20:16:13.658Z,99849.34
2023-04-26T20:18:41.324Z,99853.16
2023-04-26T20:21:10.460Z,99856.00
2023-04-26T20:23:38.188Z,99854.81
2023-04-26T20:26:06.154Z,99857.88
2023-04-26T20:28:33.781Z,99850.00
2023-04-26T20:31:01.472Z,99850.00
2023-04-26T20:33:29.152Z,99852.38
2023-04-26T20:35:56.969Z,99856.22
2023-04-26T20:38:26.109Z,99848.91
2023-04-26T20:40:53.819Z,99857.34
2023-04-26T20:43:21.436Z,99857.81
2023-04-26T20:45:49.096Z,99849.91
2023-04-26T20:48:16.733Z,99860.72
2023-04-26T20:50:44.439Z,99853.88
2023-04-26T20:53:12.099Z,99858.22
2023-04-26T20:55:41.234Z,99861.09
2023-04-26T20:58:09.553Z,99860.94
2023-04-26T21:00:37.205Z,99857.38
2023-04-26T21:03:05.336Z,99858.22
2023-04-26T21:05:33.127Z,99867.41
2023-04-26T21:08:00.775Z,99864.56
2023-04-26T21:10:28.431Z,99865.22
2023-04-26T21:12:57.424Z,99858.44
2023-04-26T21:15:25.193Z,99858.44
2023-04-26T21:17:53.169Z,99861.13
2023-04-26T21:20:21.207Z,99870.44
2023-04-26T21:22:48.881Z,99861.19
2023-04-26T21:25:19.489Z,99869.66
2023-04-26T21:27:47.245Z,99869.72
2023-04-26T21:30:16.664Z,99876.63
2023-04-26T21:32:44.407Z,99872.22
2023-04-26T21:35:12.363Z,99886.66
2023-04-26T21:37:40.106Z,99884.28
2023-04-26T21:40:09.255Z,99886.06
2023-04-26T21:42:36.934Z,99884.59
2023-04-26T21:45:05.180Z,99886.25
2023-04-26T21:47:34.332Z,99887.22
2023-04-26T21:50:02.651Z,99882.50
2023-04-26T21:52:30.432Z,99886.69
2023-04-26T21:54:58.060Z,99886.97
2023-04-26T21:57:25.892Z,99886.13
2023-04-26T21:59:53.696Z,99883.38
2023-04-26T22:02:21.463Z,99886.00
2023-04-26T22:04:50.697Z,99886.53
2023-04-26T22:07:18.387Z,99888.84
2023-04-26T22:09:46.171Z,99893.84
2023-04-26T22:12:13.791Z,99889.69
2023-04-26T22:14:41.523Z,99887.19
2023-04-26T22:17:09.283Z,99888.34
2023-04-26T22:19:36.938Z,99893.28
2023-04-26T22:22:06.037Z,99892.75
2023-04-26T22:24:33.911Z,99900.63
2023-04-26T22:27:02.349Z,99903.50
2023-04-26T22:29:30.339Z,99901.41
2023-04-26T22:31:58.093Z,99900.13
2023-04-26T22:34:25.739Z,99893.50
2023-04-26T22:36:53.356Z,99902.75
2023-04-26T22:39:22.396Z,99908.53
2023-04-26T22:41:50.070Z,99901.78
2023-04-26T22:44:17.779Z,99914.19
2023-04-26T22:46:45.569Z,99910.72
2023-04-26T22:49:13.400Z,99920.50
2023-04-26T22:51:42.792Z,99914.72
2023-04-26T22:54:13.739Z,99912.28
2023-04-26T22:56:42.746Z,99910.31
2023-04-26T22:59:10.775Z,99914.97
2023-04-26T23:01:38.689Z,99910.25
2023-04-26T23:04:06.331Z,99917.97
2023-04-26T23:06:34.171Z,99921.91
2023-04-26T23:09:01.858Z,99926.06
2023-04-26T23:11:29.477Z,99919.03
2023-04-26T23:13:58.513Z,99918.72
2023-04-26T23:16:26.224Z,99922.94
2023-04-26T23:18:54.237Z,99928.19
2023-04-26T23:21:21.994Z,99930.91
2023-04-26T23:23:49.702Z,99929.09
2023-04-26T23:26:17.341Z,99925.19
2023-04-26T23:28:44.983Z,99925.19
2023-04-26T23:31:14.005Z,99926.50
2023-04-26T23:33:41.890Z,99918.59
2023-04-26T23:36:10.404Z,99925.88
2023-04-26T23:38:38.057Z,99930.78
2023-04-26T23:41:06.074Z,99927.41
2023-04-26T23:43:33.756Z,99913.47
2023-04-26T23:46:01.571Z,99926.53
2023-04-26T23:48:30.642Z,99928.22
2023-04-26T23:51:00.123Z,99929.66
2023-04-26T23:53:28.313Z,99918.31
2023-04-26T23:55:56.128Z,99923.03
2023-04-26T23:58:23.721Z,99912.31
